Time;durP1;ratioP1;P1;durP2;ratioP2;P2;SDS_P1;SDS_P2;PMS_P1;PMS_P2;Temp;Humidity;BMP_temperature;BMP_pressure;BME280_temperature;BME280_humidity;BME280_pressure;Samples;Min_cycle;Max_cycle;Signal;HPM_P1;HPM_P2
2022/01/13 00:01:50;;;;;;;37.17;19.73;;;1.60;99.90;;;;;;4992617;28;20054;-67
2022/01/13 00:04:19;;;;;;;37.53;19.60;;;1.60;99.90;;;;;;5006889;28;20089;-67
2022/01/13 00:06:48;;;;;;;36.07;19.37;;;1.60;99.90;;;;;;5007382;28;20085;-67
2022/01/13 00:09:16;;;;;;;32.63;17.63;;;1.60;99.90;;;;;;4992051;28;20096;-67
2022/01/13 00:11:45;;;;;;;34.03;18.60;;;1.70;99.90;;;;;;4991871;28;20056;-69
2022/01/13 00:14:26;;;;;;;34.93;17.97;;;1.60;99.90;;;;;;4992197;28;20145;-67
2022/01/13 00:19:55;;;;;;;38.47;18.50;;;1.80;99.90;;;;;;4991826;28;20101;-67
2022/01/13 00:22:37;;;;;;;37.83;18.30;;;1.80;99.90;;;;;;4991864;28;20058;-67
2022/01/13 00:25:07;;;;;;;35.77;18.57;;;1.70;99.90;;;;;;4991718;28;20050;-67
2022/01/13 00:27:38;;;;;;;35.40;19.10;;;1.60;99.90;;;;;;4991826;28;20649;-67
2022/01/13 00:30:15;;;;;;;33.53;17.97;;;1.60;99.90;;;;;;4994950;28;20062;-67
2022/01/13 00:32:42;;;;;;;38.47;19.27;;;1.80;99.90;;;;;;4995318;28;20498;-67
2022/01/13 00:35:11;;;;;;;33.73;18.50;;;1.80;99.90;;;;;;4995307;28;20133;-67
2022/01/13 00:37:40;;;;;;;33.33;18.00;;;1.80;99.90;;;;;;4995677;28;20137;-67
2022/01/13 00:40:08;;;;;;;34.70;18.07;;;1.80;99.90;;;;;;4995685;28;20054;-67
2022/01/13 00:42:38;;;;;;;40.33;19.27;;;1.80;99.90;;;;;;4995658;28;20054;-67
2022/01/13 00:45:09;;;;;;;35.27;18.47;;;1.80;99.90;;;;;;4995213;28;20061;-67
2022/01/13 00:47:37;;;;;;;37.80;18.13;;;1.80;99.90;;;;;;4995304;28;20411;-67
2022/01/13 00:50:05;;;;;;;36.47;18.93;;;1.70;99.90;;;;;;4995488;28;20414;-67
2022/01/13 00:52:35;;;;;;;39.93;19.00;;;1.60;99.90;;;;;;4987341;28;20065;-67
2022/01/13 00:55:06;;;;;;;43.60;19.90;;;1.70;99.90;;;;;;4994617;28;20113;-67
2022/01/13 00:57:34;;;;;;;36.90;18.97;;;1.70;99.90;;;;;;4994923;28;20570;-67
2022/01/13 01:00:03;;;;;;;36.87;20.07;;;1.60;99.90;;;;;;4995181;28;20058;-67
2022/01/13 01:02:30;;;;;;;33.37;18.37;;;1.70;99.90;;;;;;4994728;28;20086;-68
2022/01/13 01:04:57;;;;;;;41.83;18.40;;;1.70;99.90;;;;;;4994323;28;20479;-67
2022/01/13 01:07:24;;;;;;;33.07;17.57;;;1.70;99.90;;;;;;4994654;28;20095;-67
2022/01/13 01:09:58;;;;;;;34.00;18.47;;;1.60;99.90;;;;;;4994405;28;20145;-67
2022/01/13 01:12:25;;;;;;;33.27;19.20;;;1.60;99.90;;;;;;4994741;28;20064;-67
2022/01/13 01:14:56;;;;;;;35.07;19.10;;;1.70;99.90;;;;;;4994396;28;20054;-67
2022/01/13 01:17:26;;;;;;;31.53;19.00;;;1.70;99.90;;;;;;4994749;28;20090;-67
2022/01/13 01:19:53;;;;;;;34.97;17.00;;;1.70;99.90;;;;;;4994598;28;20054;-67
2022/01/13 01:22:54;;;;;;;35.37;17.07;;;1.60;99.90;;;;;;4994228;28;20513;-67
2022/01/13 01:25:40;;;;;;;33.80;17.60;;;1.60;99.90;;;;;;4994544;28;20058;-67
2022/01/13 01:28:14;;;;;;;35.97;19.03;;;1.80;99.90;;;;;;4994198;28;20058;-67
2022/01/13 01:30:44;;;;;;;38.00;18.97;;;1.80;99.90;;;;;;4994504;28;20294;-67
2022/01/13 01:33:15;;;;;;;32.73;17.67;;;1.80;99.90;;;;;;4994114;28;20517;-67
2022/01/13 01:35:42;;;;;;;35.77;19.20;;;1.70;99.90;;;;;;4994334;28;20065;-67
2022/01/13 01:38:09;;;;;;;37.03;19.33;;;1.70;99.90;;;;;;4994084;28;20084;-67
2022/01/13 01:40:37;;;;;;;37.23;18.97;;;1.80;99.90;;;;;;4993389;28;20116;-67
2022/01/13 01:43:04;;;;;;;37.47;20.47;;;1.80;99.90;;;;;;4993844;28;20059;-67
2022/01/13 01:45:34;;;;;;;37.37;19.83;;;1.90;99.90;;;;;;4993544;28;20137;-67
2022/01/13 01:48:04;;;;;;;34.13;18.27;;;1.80;99.90;;;;;;4993569;28;20458;-67
2022/01/13 01:50:35;;;;;;;38.40;19.57;;;1.80;99.90;;;;;;4994018;28;20141;-67
2022/01/13 01:53:03;;;;;;;33.47;19.00;;;1.80;99.90;;;;;;4993871;28;20116;-67
2022/01/13 01:55:30;;;;;;;30.37;17.50;;;1.80;99.90;;;;;;4993459;28;20058;-67
2022/01/13 01:57:58;;;;;;;32.20;17.77;;;1.80;99.90;;;;;;4993364;28;20165;-67
2022/01/13 02:00:27;;;;;;;35.77;18.50;;;1.80;99.90;;;;;;4993580;28;20058;-67
2022/01/13 02:02:55;;;;;;;34.93;18.30;;;1.80;99.90;;;;;;4993498;28;20061;-67
2022/01/13 02:05:22;;;;;;;35.27;18.40;;;1.80;99.90;;;;;;4993273;28;20154;-67
2022/01/13 02:07:49;;;;;;;37.97;18.47;;;1.90;99.90;;;;;;4993321;28;20069;-67
2022/01/13 02:10:17;;;;;;;34.13;18.27;;;1.80;99.90;;;;;;4993218;28;20101;-67
2022/01/13 02:12:48;;;;;;;33.87;18.23;;;1.80;99.90;;;;;;4993348;28;20061;-67
2022/01/13 02:17:59;;;;;;;33.07;18.30;;;1.80;99.90;;;;;;4991169;28;20136;-67
2022/01/13 02:20:41;;;;;;;35.57;19.03;;;1.80;99.90;;;;;;4993155;28;20573;-67
2022/01/13 02:23:08;;;;;;;35.77;18.17;;;1.80;99.90;;;;;;5002018;28;20054;-67
2022/01/13 02:25:36;;;;;;;34.00;17.83;;;1.80;99.90;;;;;;5015465;28;20054;-67
2022/01/13 02:28:02;;;;;;;34.73;17.90;;;1.80;99.90;;;;;;4997569;28;20132;-67
2022/01/13 02:30:30;;;;;;;36.13;19.27;;;1.80;99.90;;;;;;4993116;28;20129;-67
2022/01/13 02:32:56;;;;;;;38.47;18.57;;;1.90;99.90;;;;;;4992875;28;20141;-67
2022/01/13 02:35:35;;;;;;;37.97;18.97;;;1.80;99.90;;;;;;4992763;28;20129;-67
2022/01/13 02:38:02;;;;;;;32.43;18.77;;;1.80;99.90;;;;;;4992868;28;20054;-67
2022/01/13 02:40:29;;;;;;;36.10;18.47;;;1.80;99.90;;;;;;4992887;28;20081;-67
2022/01/13 02:42:56;;;;;;;36.67;19.13;;;1.80;99.90;;;;;;4992679;28;20105;-67
2022/01/13 02:45:31;;;;;;;37.77;18.77;;;1.80;99.90;;;;;;4992427;28;20570;-67
2022/01/13 02:48:25;;;;;;;33.17;18.80;;;1.70;99.90;;;;;;4992672;28;20054;-67
2022/01/13 02:50:54;;;;;;;35.90;18.33;;;1.70;99.90;;;;;;4992725;28;20061;-67
2022/01/13 02:53:22;;;;;;;34.43;19.00;;;1.70;99.90;;;;;;4992464;28;20474;-67
2022/01/13 02:55:48;;;;;;;38.83;19.73;;;1.70;99.90;;;;;;4992422;28;20089;-67
2022/01/13 02:58:16;;;;;;;36.40;19.30;;;1.70;99.90;;;;;;4992394;28;20141;-67
2022/01/13 03:00:44;;;;;;;35.03;19.97;;;1.60;99.90;;;;;;4992369;28;20085;-69
2022/01/13 03:03:12;;;;;;;41.23;19.50;;;1.70;99.90;;;;;;5003561;28;20477;-67
2022/01/13 03:05:39;;;;;;;34.33;19.10;;;1.60;99.90;;;;;;4997027;28;20062;-67
2022/01/13 03:08:09;;;;;;;37.30;19.63;;;1.60;99.90;;;;;;5008405;28;20418;-67
2022/01/13 03:10:36;;;;;;;37.90;19.23;;;1.50;99.90;;;;;;5012741;28;20054;-68
2022/01/13 03:13:04;;;;;;;35.90;18.43;;;1.50;99.90;;;;;;5003235;28;20065;-67
2022/01/13 03:15:31;;;;;;;36.57;17.93;;;1.60;99.90;;;;;;4992013;28;20054;-67
2022/01/13 03:17:57;;;;;;;36.90;19.20;;;1.60;99.90;;;;;;4992127;28;20593;-67
2022/01/13 03:20:24;;;;;;;37.53;20.07;;;1.60;99.90;;;;;;4992122;28;20092;-67
2022/01/13 03:22:51;;;;;;;37.77;19.07;;;1.50;99.90;;;;;;4992244;28;20149;-67
2022/01/13 03:25:22;;;;;;;35.70;19.30;;;1.40;99.90;;;;;;4991967;28;20142;-67
2022/01/13 03:27:53;;;;;;;34.20;18.33;;;1.40;99.90;;;;;;4992306;28;20104;-67
2022/01/13 03:30:20;;;;;;;31.03;17.97;;;1.30;99.90;;;;;;4992309;28;20058;-67
2022/01/13 03:32:47;;;;;;;38.23;19.20;;;1.30;99.90;;;;;;4991963;28;20074;-67
2022/01/13 03:35:14;;;;;;;35.13;19.53;;;1.30;99.90;;;;;;4992270;28;20422;-67
2022/01/13 03:37:41;;;;;;;35.27;18.40;;;1.30;99.90;;;;;;4991990;28;20145;-67
2022/01/13 03:40:09;;;;;;;40.27;19.90;;;1.30;99.90;;;;;;4992056;28;20137;-67
2022/01/13 03:42:38;;;;;;;37.27;19.13;;;1.30;99.90;;;;;;4991935;28;20046;-67
2022/01/13 03:45:06;;;;;;;41.70;20.50;;;1.30;99.90;;;;;;4991699;28;20051;-67
2022/01/13 03:50:15;;;;;;;38.67;18.40;;;1.20;99.90;;;;;;5010434;23;20054;-72
2022/01/13 03:53:31;;;;;;;37.37;19.63;;;1.10;99.90;;;;;;4995777;28;20463;-71
2022/01/13 03:56:34;;;;;;;37.67;19.47;;;1.10;99.90;;;;;;4935736;29;20464;-70
2022/01/13 03:59:53;;;;;;;43.27;20.63;;;1.00;99.90;;;;;;4992198;28;20470;-70
2022/01/13 04:02:20;;;;;;;40.05;19.92;;;1.10;99.90;;;;;;4995392;28;20482;-70
2022/01/13 04:04:48;;;;;;;38.03;20.17;;;1.10;99.90;;;;;;4997639;28;20086;-70
2022/01/13 04:07:18;;;;;;;35.80;19.03;;;1.10;99.90;;;;;;4999134;28;20137;-70
2022/01/13 04:10:27;;;;;;;38.00;20.53;;;1.20;99.90;;;;;;4999046;28;20085;-70
2022/01/13 04:12:54;;;;;;;39.67;20.67;;;1.20;99.90;;;;;;4999266;28;20089;-69
2022/01/13 04:15:28;;;;;;;34.83;19.67;;;1.20;99.90;;;;;;4999697;28;20093;-69
2022/01/13 04:17:55;;;;;;;39.00;20.23;;;1.20;99.90;;;;;;5000290;28;20090;-70
2022/01/13 04:20:22;;;;;;;42.93;20.60;;;1.20;99.90;;;;;;4999214;28;20142;-70
2022/01/13 04:22:49;;;;;;;40.07;19.27;;;1.20;99.90;;;;;;4999191;28;20491;-69
2022/01/13 04:25:21;;;;;;;35.77;19.83;;;1.20;99.90;;;;;;4998836;28;20113;-69
2022/01/13 04:27:48;;;;;;;37.83;19.23;;;1.10;99.90;;;;;;4999034;28;20133;-70
2022/01/13 04:30:44;;;;;;;38.67;20.17;;;1.20;99.90;;;;;;4998170;28;20079;-70
2022/01/13 04:33:13;;;;;;;35.93;19.33;;;1.20;99.90;;;;;;4998181;28;20066;-70
2022/01/13 04:35:40;;;;;;;35.57;18.30;;;1.20;99.90;;;;;;4998151;28;20391;-70
2022/01/13 04:38:07;;;;;;;42.57;21.67;;;1.20;99.90;;;;;;4998003;28;20137;-70
2022/01/13 04:40:35;;;;;;;38.70;18.67;;;1.30;99.90;;;;;;4998103;28;20050;-71
2022/01/13 04:43:02;;;;;;;38.90;20.03;;;1.30;99.90;;;;;;4997947;28;20144;-71
2022/01/13 04:45:29;;;;;;;40.30;20.40;;;1.40;99.90;;;;;;4997898;28;20093;-70
2022/01/13 04:47:57;;;;;;;33.33;18.70;;;1.30;99.90;;;;;;4997778;28;20424;-69
2022/01/13 04:50:28;;;;;;;35.20;18.60;;;1.40;99.90;;;;;;4997807;28;20053;-69
2022/01/13 04:52:55;;;;;;;35.70;19.50;;;1.40;99.90;;;;;;4997845;28;20090;-69
2022/01/13 04:55:24;;;;;;;39.20;21.53;;;1.40;99.90;;;;;;4997721;28;20430;-69
2022/01/13 04:57:51;;;;;;;41.47;21.80;;;1.40;99.90;;;;;;4997827;28;20517;-69
2022/01/13 05:00:18;;;;;;;39.07;20.97;;;1.40;99.90;;;;;;4997673;28;20046;-69
2022/01/13 05:02:45;;;;;;;38.57;19.70;;;1.40;99.90;;;;;;4997310;28;20138;-71
2022/01/13 05:05:13;;;;;;;45.90;22.07;;;1.40;99.90;;;;;;4996999;28;20042;-70
2022/01/13 05:07:41;;;;;;;37.53;19.90;;;1.40;99.90;;;;;;4997609;28;20050;-70
2022/01/13 05:10:09;;;;;;;36.13;19.00;;;1.40;99.90;;;;;;4997353;28;20574;-70
2022/01/13 05:12:41;;;;;;;39.97;21.30;;;1.50;99.90;;;;;;4997655;28;20050;-70
2022/01/13 05:15:12;;;;;;;40.33;20.63;;;1.50;99.90;;;;;;4995815;28;20062;-70
2022/01/13 05:20:41;;;;;;;39.07;20.23;;;1.50;99.90;;;;;;4997232;28;20046;-70
2022/01/13 05:23:12;;;;;;;42.73;20.10;;;1.50;99.90;;;;;;4996849;28;20120;-70
2022/01/13 05:25:39;;;;;;;37.03;20.17;;;1.50;99.90;;;;;;4997144;28;20089;-70
2022/01/13 05:28:07;;;;;;;38.33;19.13;;;1.40;99.90;;;;;;4996770;28;20074;-70
2022/01/13 05:30:34;;;;;;;38.00;19.67;;;1.40;99.90;;;;;;4996866;28;20093;-70
2022/01/13 05:33:01;;;;;;;37.90;19.53;;;1.40;99.90;;;;;;4996872;28;20074;-70
2022/01/13 05:35:29;;;;;;;37.97;19.37;;;1.40;99.90;;;;;;4996873;28;20081;-70
2022/01/13 05:37:55;;;;;;;39.60;19.97;;;1.50;99.90;;;;;;4996841;28;20085;-70
2022/01/13 05:40:24;;;;;;;39.13;20.97;;;1.40;99.90;;;;;;4996666;28;20585;-71
2022/01/13 05:42:51;;;;;;;40.13;21.93;;;1.40;99.90;;;;;;4996534;28;20075;-69
2022/01/13 05:45:20;;;;;;;40.13;19.90;;;1.50;99.90;;;;;;4996382;28;20093;-69
2022/01/13 05:47:49;;;;;;;39.47;20.57;;;1.40;99.90;;;;;;4996680;28;20109;-70
2022/01/13 05:50:19;;;;;;;38.50;20.97;;;1.50;99.90;;;;;;4996558;28;20050;-69
2022/01/13 05:52:46;;;;;;;36.13;18.43;;;1.50;99.90;;;;;;4996944;28;20092;-69
2022/01/13 05:55:14;;;;;;;38.77;19.80;;;1.50;99.90;;;;;;4996324;28;20085;-72
2022/01/13 05:57:43;;;;;;;38.13;18.67;;;1.50;99.90;;;;;;4996291;28;20458;-74
2022/01/13 06:00:13;;;;;;;39.97;18.60;;;1.50;99.90;;;;;;4996637;28;20077;-69
2022/01/13 06:02:41;;;;;;;37.23;18.77;;;1.50;99.90;;;;;;4996907;28;20093;-71
2022/01/13 06:05:09;;;;;;;36.07;17.97;;;1.60;99.90;;;;;;4996464;28;20089;-70
2022/01/13 06:07:36;;;;;;;38.30;19.30;;;1.50;99.90;;;;;;4996298;28;20082;-71
2022/01/13 06:10:06;;;;;;;36.87;18.67;;;1.50;99.90;;;;;;4996678;28;20096;-69
2022/01/13 06:12:36;;;;;;;33.83;17.40;;;1.50;99.90;;;;;;4996263;28;20518;-69
2022/01/13 06:15:07;;;;;;;35.40;18.50;;;1.50;99.90;;;;;;4995933;28;20541;-69
2022/01/13 06:17:34;;;;;;;35.27;17.50;;;1.50;99.90;;;;;;4996285;28;20065;-69
2022/01/13 06:20:01;;;;;;;36.33;17.83;;;1.50;99.90;;;;;;4996260;28;20046;-70
2022/01/13 06:22:28;;;;;;;34.77;16.80;;;1.60;99.90;;;;;;4996473;28;20082;-70
2022/01/13 06:24:55;;;;;;;38.13;17.53;;;1.50;99.90;;;;;;4996745;28;20129;-70
2022/01/13 06:27:22;;;;;;;38.83;17.77;;;1.40;99.90;;;;;;4993186;28;20081;-71
2022/01/13 06:29:51;;;;;;;40.77;18.33;;;1.40;99.90;;;;;;4994663;28;20050;-71
2022/01/13 06:32:20;;;;;;;35.87;17.90;;;1.30;99.90;;;;;;4994592;28;20410;-72
2022/01/13 06:34:47;;;;;;;33.53;17.07;;;1.40;99.90;;;;;;4994778;28;20142;-71
2022/01/13 06:37:14;;;;;;;40.80;18.17;;;1.30;99.90;;;;;;4995001;28;20050;-72
2022/01/13 06:39:41;;;;;;;33.73;17.53;;;1.30;99.90;;;;;;4994680;28;20090;-72
2022/01/13 06:42:10;;;;;;;34.90;17.70;;;1.30;99.90;;;;;;4994877;28;20077;-71
2022/01/13 06:44:37;;;;;;;36.10;18.00;;;1.30;99.90;;;;;;4993990;28;20129;-71
2022/01/13 06:47:05;;;;;;;35.83;18.73;;;1.40;99.90;;;;;;4993870;28;20459;-71
2022/01/13 06:49:34;;;;;;;36.87;17.30;;;1.30;99.90;;;;;;4993959;28;20479;-71
2022/01/13 06:52:02;;;;;;;34.97;17.93;;;1.20;99.90;;;;;;4994374;28;20054;-72
2022/01/13 06:54:29;;;;;;;39.60;18.73;;;1.30;99.90;;;;;;4995467;28;20085;-71
2022/01/13 06:56:56;;;;;;;35.97;18.37;;;1.30;99.90;;;;;;4996669;28;20078;-72
2022/01/13 06:59:23;;;;;;;36.83;18.63;;;1.30;99.90;;;;;;4996558;28;20519;-72
2022/01/13 07:01:50;;;;;;;41.13;19.30;;;1.30;99.90;;;;;;4996142;28;20054;-72
2022/01/13 07:04:17;;;;;;;38.87;18.20;;;1.30;99.90;;;;;;4995660;28;20487;-71
2022/01/13 07:06:47;;;;;;;36.37;17.63;;;1.30;99.90;;;;;;4996704;28;20141;-71
2022/01/13 07:09:17;;;;;;;31.00;15.50;;;1.30;99.90;;;;;;4996231;28;20050;-72
2022/01/13 07:11:46;;;;;;;33.07;16.73;;;1.30;99.90;;;;;;4996283;28;20054;-72
2022/01/13 07:14:13;;;;;;;32.13;16.37;;;1.40;99.90;;;;;;4996357;28;20507;-72
2022/01/13 07:16:41;;;;;;;37.17;16.80;;;1.30;99.90;;;;;;4996102;28;20481;-71
2022/01/13 07:19:23;;;;;;;36.13;17.77;;;1.40;99.90;;;;;;4996273;28;20082;-72
2022/01/13 07:21:52;;;;;;;33.43;17.37;;;1.40;99.90;;;;;;4995917;28;20133;-72
2022/01/13 07:24:19;;;;;;;36.30;17.90;;;1.40;99.90;;;;;;4996255;28;20081;-72
2022/01/13 07:26:51;;;;;;;33.37;17.03;;;1.40;99.90;;;;;;4996407;28;20125;-71
2022/01/13 07:29:18;;;;;;;33.13;16.87;;;1.50;99.90;;;;;;4996730;28;20069;-71
2022/01/13 07:31:46;;;;;;;33.27;16.67;;;1.50;99.90;;;;;;4996813;28;20487;-71
2022/01/13 07:34:13;;;;;;;35.70;16.17;;;1.50;99.90;;;;;;4996237;28;20137;-72
2022/01/13 07:36:40;;;;;;;34.63;16.23;;;1.50;99.90;;;;;;4995984;28;20070;-71
2022/01/13 07:39:09;;;;;;;31.13;15.00;;;1.40;99.90;;;;;;4998219;28;20093;-71
2022/01/13 07:41:37;;;;;;;32.63;17.40;;;1.50;99.90;;;;;;4999811;28;20153;-73
2022/01/13 07:44:06;;;;;;;33.63;16.17;;;1.50;99.90;;;;;;5000601;28;20046;-72
2022/01/13 07:46:33;;;;;;;34.90;16.10;;;1.50;99.90;;;;;;4992568;28;20437;-71
2022/01/13 07:49:00;;;;;;;32.00;15.57;;;1.60;99.90;;;;;;5000452;28;20503;-72
2022/01/13 07:51:28;;;;;;;26.33;13.63;;;1.60;99.90;;;;;;4999551;28;20137;-71
2022/01/13 07:53:55;;;;;;;32.63;14.77;;;1.50;99.90;;;;;;5000216;28;20466;-72
2022/01/13 07:56:24;;;;;;;29.60;14.37;;;1.60;99.90;;;;;;5000063;28;20093;-71
2022/01/13 07:58:50;;;;;;;30.63;14.83;;;1.60;99.90;;;;;;4999385;28;20141;-72
2022/01/13 08:01:17;;;;;;;26.10;13.23;;;1.60;99.90;;;;;;4999553;28;20107;-72
2022/01/13 08:03:44;;;;;;;30.77;13.43;;;1.50;99.90;;;;;;4999948;28;20078;-72
2022/01/13 08:06:11;;;;;;;30.27;13.73;;;1.60;99.90;;;;;;5000076;28;20153;-71
2022/01/13 08:08:38;;;;;;;30.50;14.80;;;1.60;99.90;;;;;;5000164;28;20053;-71
2022/01/13 08:11:06;;;;;;;29.87;14.63;;;1.70;99.90;;;;;;4999998;28;20050;-71
2022/01/13 08:13:35;;;;;;;31.93;14.57;;;1.70;99.90;;;;;;4999953;28;20046;-72
2022/01/13 08:16:07;;;;;;;27.03;13.23;;;1.70;99.90;;;;;;4999616;28;20134;-71
2022/01/13 08:21:49;;;;;;;26.23;12.67;;;1.70;99.90;;;;;;4999419;28;20505;-72
2022/01/13 08:24:16;;;;;;;28.07;13.50;;;1.70;99.90;;;;;;4999051;28;20085;-73
2022/01/13 08:26:43;;;;;;;25.73;12.33;;;1.70;99.90;;;;;;4999238;28;20562;-70
2022/01/13 08:29:11;;;;;;;28.23;12.73;;;1.70;99.90;;;;;;4996456;28;20097;-71
2022/01/13 08:31:38;;;;;;;27.43;13.33;;;1.60;99.90;;;;;;4995537;28;20046;-73
2022/01/13 08:34:06;;;;;;;27.67;13.03;;;1.60;99.90;;;;;;4998180;28;20121;-71
2022/01/13 08:36:33;;;;;;;27.83;12.40;;;1.60;99.90;;;;;;4998243;28;20410;-72
2022/01/13 08:38:59;;;;;;;27.73;13.53;;;1.60;99.90;;;;;;4998785;28;20097;-71
2022/01/13 08:41:26;;;;;;;28.60;13.57;;;1.60;99.90;;;;;;4998350;28;20137;-71
2022/01/13 08:43:55;;;;;;;28.63;14.27;;;1.60;99.90;;;;;;4997888;28;20078;-71
2022/01/13 08:46:24;;;;;;;27.00;13.97;;;1.50;99.90;;;;;;4997288;28;20069;-71
2022/01/13 08:48:51;;;;;;;32.23;14.43;;;1.50;99.90;;;;;;4996771;28;20046;-71
2022/01/13 08:51:18;;;;;;;29.50;14.00;;;1.40;99.90;;;;;;4997876;28;20141;-71
2022/01/13 08:53:45;;;;;;;30.80;15.90;;;1.50;99.90;;;;;;4998930;28;20054;-71
2022/01/13 08:56:13;;;;;;;28.77;14.87;;;1.50;99.90;;;;;;4998577;28;20088;-71
2022/01/13 08:58:40;;;;;;;32.70;16.93;;;1.50;99.90;;;;;;4999107;28;20155;-71
2022/01/13 09:01:07;;;;;;;31.47;16.90;;;1.60;99.90;;;;;;4999135;28;20050;-71
2022/01/13 09:03:36;;;;;;;35.97;17.43;;;1.60;99.90;;;;;;4998949;28;20065;-71
2022/01/13 09:06:03;;;;;;;33.73;16.93;;;1.60;99.90;;;;;;4999152;28;20073;-71
2022/01/13 09:08:30;;;;;;;36.33;16.40;;;1.70;99.90;;;;;;4998659;28;20054;-71
2022/01/13 09:10:58;;;;;;;32.27;15.53;;;1.80;99.90;;;;;;4998625;28;20079;-71
2022/01/13 09:13:25;;;;;;;26.43;14.07;;;1.70;99.90;;;;;;4997946;28;20050;-71
2022/01/13 09:15:58;;;;;;;25.73;12.77;;;1.50;99.90;;;;;;4996610;28;20078;-71
2022/01/13 09:18:44;;;;;;;32.60;15.80;;;1.50;99.90;;;;;;4998133;28;20046;-71
2022/01/13 09:21:14;;;;;;;28.65;13.93;;;1.50;99.90;;;;;;4997681;28;20050;-70
2022/01/13 09:23:41;;;;;;;25.13;13.60;;;1.40;99.90;;;;;;4995033;28;20058;-71
2022/01/13 09:26:08;;;;;;;27.43;13.80;;;1.30;99.90;;;;;;4994510;28;20101;-73
2022/01/13 09:28:35;;;;;;;25.20;13.20;;;1.30;99.90;;;;;;4994300;28;20125;-71
2022/01/13 09:31:02;;;;;;;27.30;14.83;;;1.40;99.90;;;;;;4996681;28;20114;-72
2022/01/13 09:33:29;;;;;;;32.93;16.03;;;1.40;99.90;;;;;;4998158;28;20482;-71
2022/01/13 09:35:56;;;;;;;30.73;16.20;;;1.50;99.90;;;;;;4997870;28;20137;-72
2022/01/13 09:38:24;;;;;;;27.90;14.33;;;1.60;99.90;;;;;;4998035;28;20081;-72
2022/01/13 09:40:53;;;;;;;29.57;15.60;;;1.60;99.90;;;;;;4997865;28;20085;-72
2022/01/13 09:43:22;;;;;;;29.07;14.97;;;1.60;99.90;;;;;;4998633;28;20566;-72
2022/01/13 09:45:50;;;;;;;30.60;15.23;;;1.60;99.90;;;;;;4997764;28;20581;-72
2022/01/13 09:48:17;;;;;;;30.10;14.85;;;1.60;99.90;;;;;;5010844;23;20082;-68
2022/01/13 09:50:46;;;;;;;30.17;16.17;;;1.50;99.90;;;;;;4992555;28;20137;-68
2022/01/13 09:53:13;;;;;;;28.67;14.53;;;1.50;99.90;;;;;;4993697;28;20573;-68
2022/01/13 09:55:42;;;;;;;29.10;16.17;;;1.50;99.90;;;;;;4993583;28;20046;-68
2022/01/13 09:58:11;;;;;;;31.83;16.00;;;1.60;99.90;;;;;;4993774;28;20082;-68
2022/01/13 10:00:39;;;;;;;28.73;14.67;;;1.50;99.90;;;;;;4993274;28;20054;-68
2022/01/13 10:03:11;;;;;;;31.10;15.13;;;1.60;99.90;;;;;;4992868;28;20576;-68
2022/01/13 10:05:48;;;;;;;31.47;14.90;;;1.70;99.90;;;;;;4993601;28;20490;-68
2022/01/13 10:08:15;;;;;;;29.03;16.60;;;1.70;99.90;;;;;;4993538;28;20050;-68
2022/01/13 10:10:44;;;;;;;26.93;14.33;;;1.80;99.90;;;;;;4993422;28;20414;-68
2022/01/13 10:13:14;;;;;;;31.80;16.93;;;1.80;99.90;;;;;;4993194;28;20487;-68
2022/01/13 10:18:39;;;;;;;32.55;16.60;;;1.90;99.90;;;;;;4980261;28;20046;-67
2022/01/13 10:21:07;;;;;;;26.53;14.77;;;1.90;99.90;;;;;;4993028;28;20140;-68
2022/01/13 10:23:36;;;;;;;29.87;14.93;;;1.80;99.90;;;;;;4993020;28;20434;-68
2022/01/13 10:26:14;;;;;;;27.27;14.93;;;1.70;99.90;;;;;;4993297;28;20156;-68
2022/01/13 10:28:51;;;;;;;29.30;14.60;;;1.60;99.90;;;;;;4993518;28;20077;-68
2022/01/13 10:31:18;;;;;;;28.15;15.07;;;1.60;99.90;;;;;;4993329;28;20051;-68
2022/01/13 10:33:45;;;;;;;31.43;15.77;;;1.60;99.90;;;;;;4992931;28;20413;-68
2022/01/13 10:36:13;;;;;;;32.20;17.73;;;1.70;99.90;;;;;;4992602;28;20137;-68
2022/01/13 10:38:51;;;;;;;33.33;16.13;;;1.70;99.90;;;;;;4992745;28;20061;-68
2022/01/13 10:41:35;;;;;;;35.87;17.67;;;1.70;99.90;;;;;;4992782;28;20546;-68
2022/01/13 10:44:12;;;;;;;30.63;16.43;;;1.80;99.90;;;;;;4993348;28;20062;-68
2022/01/13 10:47:00;;;;;;;32.37;16.90;;;1.70;99.90;;;;;;4992416;28;20130;-68
2022/01/13 10:49:33;;;;;;;37.10;17.43;;;1.80;99.90;;;;;;4975178;28;20046;-68
2022/01/13 10:52:23;;;;;;;34.97;18.67;;;1.80;99.90;;;;;;4992450;28;20589;-68
2022/01/13 10:54:53;;;;;;;34.63;17.10;;;1.90;99.90;;;;;;4992539;28;20500;-68
2022/01/13 10:57:24;;;;;;;34.83;17.63;;;1.80;99.90;;;;;;4992707;28;20057;-68
2022/01/13 10:59:52;;;;;;;38.80;17.87;;;1.90;99.90;;;;;;4992455;28;20050;-68
2022/01/13 11:02:19;;;;;;;42.13;18.40;;;1.90;99.90;;;;;;4992472;28;20132;-68
2022/01/13 11:04:46;;;;;;;35.17;18.33;;;1.90;99.90;;;;;;4992248;28;20573;-68
2022/01/13 11:07:15;;;;;;;34.37;18.13;;;2.00;99.90;;;;;;4992535;28;20085;-68
2022/01/13 11:09:44;;;;;;;36.03;17.80;;;2.10;99.90;;;;;;4992279;28;20422;-68
2022/01/13 11:12:13;;;;;;;41.43;17.63;;;2.00;99.90;;;;;;4992701;28;20141;-68
2022/01/13 11:14:43;;;;;;;32.83;17.43;;;1.80;99.90;;;;;;4992374;28;20431;-68
2022/01/13 11:17:10;;;;;;;38.00;18.70;;;1.90;99.90;;;;;;4992620;28;20070;-68
2022/01/13 11:19:41;;;;;;;38.57;17.40;;;2.00;99.90;;;;;;4992132;28;20145;-68
2022/01/13 11:22:10;;;;;;;38.00;17.60;;;2.00;99.90;;;;;;4991991;28;20418;-68
2022/01/13 11:24:38;;;;;;;39.00;18.47;;;2.00;99.90;;;;;;4992049;28;20060;-68
2022/01/13 11:27:07;;;;;;;43.27;19.87;;;2.00;99.90;;;;;;4992248;28;20134;-68
2022/01/13 11:29:35;;;;;;;38.00;19.23;;;2.10;99.90;;;;;;4992174;28;20096;-68
2022/01/13 11:32:06;;;;;;;35.50;18.23;;;2.10;99.90;;;;;;4992175;28;20137;-68
2022/01/13 11:34:34;;;;;;;39.03;19.10;;;2.10;99.90;;;;;;4992069;28;20546;-68
2022/01/13 11:37:01;;;;;;;37.30;18.57;;;2.30;99.90;;;;;;4993101;28;20141;-68
2022/01/13 11:39:38;;;;;;;35.70;18.13;;;2.40;99.90;;;;;;4992031;28;20050;-68
2022/01/13 11:42:06;;;;;;;39.00;18.33;;;2.30;99.90;;;;;;4992075;28;20618;-68
2022/01/13 11:44:34;;;;;;;41.93;18.57;;;2.20;99.90;;;;;;5007288;28;20125;-68
2022/01/13 11:47:08;;;;;;;39.33;18.33;;;2.40;99.90;;;;;;5011624;28;20045;-68
2022/01/13 11:49:43;;;;;;;39.33;18.83;;;2.30;99.90;;;;;;5010938;28;20050;-68
2022/01/13 11:52:16;;;;;;;41.63;19.27;;;2.30;99.90;;;;;;4980624;28;20380;-68
2022/01/13 11:54:43;;;;;;;47.13;21.50;;;2.20;99.90;;;;;;4972755;28;20449;-68
2022/01/13 11:57:19;;;;;;;42.97;18.87;;;2.30;99.90;;;;;;4972832;28;20047;-68
2022/01/13 12:00:23;;;;;;;40.97;19.87;;;2.40;99.90;;;;;;4972803;28;20057;-68
2022/01/13 12:02:52;;;;;;;45.97;19.47;;;2.20;99.90;;;;;;4972270;28;20586;-68
2022/01/13 12:05:20;;;;;;;46.50;20.87;;;2.20;99.90;;;;;;4972254;28;20096;-68
2022/01/13 12:07:49;;;;;;;40.10;20.10;;;2.30;99.90;;;;;;4972413;28;20133;-68
2022/01/13 12:10:52;;;;;;;43.67;21.60;;;2.40;99.90;;;;;;4972159;28;20104;-68
2022/01/13 12:13:34;;;;;;;50.97;20.83;;;2.40;99.90;;;;;;4972407;28;20137;-68
2022/01/13 12:16:01;;;;;;;43.27;20.73;;;2.50;99.90;;;;;;4972482;28;20062;-68
2022/01/13 12:19:09;;;;;;;40.83;20.27;;;2.70;99.90;;;;;;4972374;28;20392;-68
2022/01/13 12:21:41;;;;;;;41.03;19.77;;;2.70;99.90;;;;;;4972206;28;20499;-68
2022/01/13 12:24:12;;;;;;;40.13;19.83;;;2.70;99.90;;;;;;4972330;28;20055;-68
2022/01/13 12:26:50;;;;;;;38.83;19.67;;;2.50;99.90;;;;;;4976062;28;20062;-68
2022/01/13 12:29:19;;;;;;;38.87;19.83;;;2.50;99.90;;;;;;4976131;28;20093;-68
2022/01/13 12:31:54;;;;;;;39.77;19.97;;;2.60;99.90;;;;;;4975622;28;20054;-68
2022/01/13 12:34:46;;;;;;;39.60;20.43;;;2.70;99.90;;;;;;4975926;28;20482;-68
2022/01/13 12:37:25;;;;;;;42.77;20.83;;;2.60;99.90;;;;;;4975725;28;20169;-68
2022/01/13 12:39:58;;;;;;;37.97;19.63;;;2.70;99.90;;;;;;4975903;28;20101;-68
2022/01/13 12:42:31;;;;;;;39.43;19.03;;;2.60;99.90;;;;;;4975596;28;20470;-68
2022/01/13 12:47:43;;;;;;;40.17;20.37;;;2.40;99.90;;;;;;4975540;28;20422;-68
2022/01/13 12:50:17;;;;;;;39.77;20.20;;;2.60;99.90;;;;;;4975241;28;20076;-68
2022/01/13 12:52:46;;;;;;;41.63;20.17;;;2.60;99.90;;;;;;4975463;28;20061;-68
2022/01/13 12:55:14;;;;;;;38.53;19.73;;;2.50;99.90;;;;;;4975415;28;20134;-68
2022/01/13 12:57:50;;;;;;;38.90;19.27;;;2.70;99.90;;;;;;4975512;28;20134;-68
2022/01/13 13:00:19;;;;;;;41.03;21.13;;;2.60;99.90;;;;;;4975587;28;20138;-68
2022/01/13 13:02:54;;;;;;;38.07;20.13;;;2.60;99.90;;;;;;4975395;28;20082;-68
2022/01/13 13:05:31;;;;;;;38.60;19.47;;;2.70;99.90;;;;;;4975156;28;20097;-68
2022/01/13 13:07:58;;;;;;;40.03;21.33;;;2.70;99.90;;;;;;4975499;28;20057;-68
2022/01/13 13:10:25;;;;;;;42.57;20.93;;;2.70;99.90;;;;;;4975079;28;20057;-68
2022/01/13 13:12:53;;;;;;;40.47;20.87;;;2.60;99.90;;;;;;4974980;28;20086;-68